createdAt,value
2023-01-30T00:01:37.466Z,51.15
2023-01-30T00:03:38.812Z,50.71
2023-01-30T00:05:40.104Z,50.55
2023-01-30T00:07:41.438Z,50.49
2023-01-30T00:09:42.777Z,50.85
2023-01-30T00:11:44.193Z,50.94
2023-01-30T00:13:45.506Z,51.83
2023-01-30T00:15:46.850Z,51.51
2023-01-30T00:17:48.148Z,51.23
2023-01-30T00:19:49.457Z,51.42
2023-01-30T00:21:50.789Z,51.27
2023-01-30T00:23:52.124Z,51.29
2023-01-30T00:25:53.429Z,50.99
2023-01-30T00:27:54.790Z,51.70
2023-01-30T00:30:02.929Z,51.45
2023-01-30T00:32:04.751Z,51.74
2023-01-30T00:34:06.091Z,51.68
2023-01-30T00:36:07.427Z,52.06
2023-01-30T00:38:08.895Z,51.90
2023-01-30T00:40:10.222Z,52.26
2023-01-30T00:42:47.194Z,52.36
2023-01-30T00:45:07.186Z,52.26
2023-01-30T00:47:09.197Z,52.28
2023-01-30T00:49:10.597Z,52.46
2023-01-30T00:51:11.903Z,52.68
2023-01-30T00:53:13.224Z,53.08
2023-01-30T00:55:16.094Z,52.79
2023-01-30T00:57:17.679Z,53.36
2023-01-30T00:59:19.060Z,53.31
2023-01-30T01:01:20.404Z,53.73
2023-01-30T01:03:21.762Z,53.90
2023-01-30T01:05:23.067Z,54.03
2023-01-30T01:07:24.434Z,53.37
2023-01-30T01:09:25.815Z,53.45
2023-01-30T01:11:27.145Z,53.63
2023-01-30T01:13:28.453Z,53.58
2023-01-30T01:15:30.179Z,53.83
2023-01-30T01:17:31.495Z,53.39
2023-01-30T01:19:32.930Z,53.06
2023-01-30T01:21:34.271Z,53.27
2023-01-30T01:23:35.735Z,53.59
2023-01-30T01:25:37.030Z,53.85
2023-01-30T01:27:38.375Z,53.27
2023-01-30T01:29:39.669Z,53.35
2023-01-30T01:31:41.140Z,53.81
2023-01-30T01:33:42.482Z,54.11
2023-01-30T01:35:43.898Z,54.16
2023-01-30T01:37:45.200Z,54.53
2023-01-30T01:40:05.312Z,54.45
2023-01-30T01:42:06.661Z,54.27
2023-01-30T01:44:08.037Z,54.61
2023-01-30T01:46:09.374Z,54.71
2023-01-30T01:48:10.723Z,54.67
2023-01-30T01:50:12.026Z,55.44
2023-01-30T01:52:13.378Z,54.95
2023-01-30T01:54:14.719Z,55.50
2023-01-30T01:56:16.056Z,54.88
2023-01-30T01:58:17.356Z,54.76
2023-01-30T02:00:18.684Z,55.29
2023-01-30T02:02:20.043Z,55.64
2023-01-30T02:04:41.384Z,55.86
2023-01-30T02:06:42.696Z,55.83
2023-01-30T02:08:43.988Z,55.82
2023-01-30T02:10:45.340Z,55.87
2023-01-30T02:12:46.682Z,55.49
2023-01-30T02:14:48.246Z,55.48
2023-01-30T02:16:49.580Z,55.34
2023-01-30T02:18:50.880Z,55.38
2023-01-30T02:20:52.256Z,55.04
2023-01-30T02:22:53.605Z,55.34
2023-01-30T02:24:54.943Z,55.13
2023-01-30T02:26:56.243Z,54.21
2023-01-30T02:28:57.598Z,54.42
2023-01-30T02:30:58.957Z,53.38
2023-01-30T02:33:00.322Z,53.12
2023-01-30T02:35:01.643Z,53.20
2023-01-30T02:37:02.997Z,52.80
2023-01-30T02:39:04.318Z,52.55
2023-01-30T02:41:05.615Z,52.53
2023-01-30T02:43:06.951Z,52.64
2023-01-30T02:45:08.246Z,52.10
2023-01-30T02:47:09.544Z,52.90
2023-01-30T02:49:10.878Z,52.49
2023-01-30T02:51:12.175Z,52.26
2023-01-30T02:53:13.473Z,52.42
2023-01-30T02:55:14.806Z,52.54
2023-01-30T02:57:16.114Z,52.71
2023-01-30T02:59:17.446Z,52.70
2023-01-30T03:01:18.866Z,53.47
2023-01-30T03:03:20.410Z,53.47
2023-01-30T03:05:21.754Z,53.20
2023-01-30T03:07:23.066Z,53.29
2023-01-30T03:09:24.379Z,53.30
2023-01-30T03:11:25.811Z,53.77
2023-01-30T03:13:27.176Z,53.94
2023-01-30T03:15:28.702Z,54.46
2023-01-30T03:17:30.018Z,54.47
2023-01-30T03:19:31.371Z,54.22
2023-01-30T03:21:32.703Z,54.47
2023-01-30T03:23:34.073Z,54.26
2023-01-30T03:25:35.575Z,54.46
2023-01-30T03:27:37.206Z,54.77
2023-01-30T03:29:38.568Z,54.74
2023-01-30T03:31:40.065Z,54.87
2023-01-30T03:33:41.422Z,54.88
2023-01-30T03:35:43.295Z,54.86
2023-01-30T03:37:44.614Z,55.02
2023-01-30T03:39:45.911Z,54.97
2023-01-30T03:41:47.217Z,54.95
2023-01-30T03:43:48.543Z,54.79
2023-01-30T03:45:49.937Z,54.63
2023-01-30T03:47:51.971Z,54.59
2023-01-30T03:49:53.337Z,54.69
2023-01-30T03:51:54.716Z,55.16
2023-01-30T03:53:56.038Z,54.98
2023-01-30T03:55:57.374Z,54.69
2023-01-30T03:57:58.749Z,54.67
2023-01-30T04:00:00.045Z,54.86
2023-01-30T04:02:01.398Z,54.89
2023-01-30T04:04:02.730Z,54.31
2023-01-30T04:06:04.021Z,54.60
2023-01-30T04:08:05.309Z,54.29
2023-01-30T04:10:06.620Z,54.18
2023-01-30T04:12:07.922Z,53.56
2023-01-30T04:14:09.218Z,53.30
2023-01-30T04:16:10.553Z,53.25
2023-01-30T04:18:11.843Z,53.00
2023-01-30T04:20:13.168Z,52.23
2023-01-30T04:22:14.468Z,52.06
2023-01-30T04:24:15.798Z,52.01
2023-01-30T04:26:17.157Z,52.16
2023-01-30T04:28:18.475Z,51.74
2023-01-30T04:30:19.840Z,51.30
2023-01-30T04:32:21.167Z,51.42
2023-01-30T04:34:22.512Z,51.03
2023-01-30T04:36:23.806Z,51.14
2023-01-30T04:38:25.113Z,51.07
2023-01-30T04:40:26.454Z,51.33
2023-01-30T04:42:27.746Z,51.13
2023-01-30T04:44:29.054Z,51.53
2023-01-30T04:46:30.356Z,51.19
2023-01-30T04:48:31.660Z,51.50
2023-01-30T04:50:32.959Z,51.46
2023-01-30T04:52:34.462Z,51.42
2023-01-30T04:54:35.810Z,51.67
2023-01-30T04:56:37.113Z,51.59
2023-01-30T04:58:38.431Z,51.58
2023-01-30T05:00:39.821Z,51.76
2023-01-30T05:02:41.125Z,51.78
2023-01-30T05:04:42.450Z,52.01
2023-01-30T05:06:43.750Z,51.64
2023-01-30T05:08:46.879Z,52.08
2023-01-30T05:10:48.381Z,52.32
2023-01-30T05:12:49.705Z,52.30
2023-01-30T05:14:51.040Z,52.57
2023-01-30T05:16:52.446Z,52.72
2023-01-30T05:18:53.798Z,52.65
2023-01-30T05:20:55.608Z,52.53
2023-01-30T05:22:56.949Z,52.56
2023-01-30T05:24:58.281Z,52.22
2023-01-30T05:26:59.621Z,52.22
2023-01-30T05:29:01.105Z,51.61
2023-01-30T05:31:02.588Z,51.26
2023-01-30T05:33:03.934Z,51.08
2023-01-30T05:35:05.267Z,50.72
2023-01-30T05:37:06.549Z,50.57
2023-01-30T05:39:07.875Z,50.47
2023-01-30T05:41:09.166Z,50.08
2023-01-30T05:43:10.503Z,50.01
2023-01-30T05:45:11.803Z,50.22
2023-01-30T05:47:13.133Z,49.51
2023-01-30T05:49:14.436Z,49.80
2023-01-30T05:51:15.738Z,49.67
2023-01-30T05:53:17.139Z,49.86
2023-01-30T05:55:18.730Z,49.90
2023-01-30T05:57:20.298Z,49.57
2023-01-30T05:59:21.674Z,49.70
2023-01-30T06:01:23.049Z,49.32
2023-01-30T06:03:24.624Z,49.22
2023-01-30T06:05:26.006Z,49.38
2023-01-30T06:07:27.352Z,49.65
2023-01-30T06:09:28.681Z,49.60
2023-01-30T06:11:30.038Z,49.32
2023-01-30T06:13:31.368Z,49.73
2023-01-30T06:15:32.661Z,49.64
2023-01-30T06:17:34.026Z,49.47
2023-01-30T06:19:35.316Z,50.15
2023-01-30T06:21:36.613Z,49.89
2023-01-30T06:23:39.012Z,49.91
2023-01-30T06:25:40.341Z,50.18
2023-01-30T06:27:43.301Z,50.28
2023-01-30T06:29:44.651Z,50.35
2023-01-30T06:31:46.034Z,50.31
2023-01-30T06:33:49.387Z,50.27
2023-01-30T06:35:50.823Z,50.53
2023-01-30T06:37:52.115Z,50.63
2023-01-30T06:39:53.417Z,50.70
2023-01-30T06:41:54.721Z,50.75
2023-01-30T06:43:56.011Z,50.69
2023-01-30T06:45:57.317Z,50.91
2023-01-30T06:47:58.707Z,50.96
2023-01-30T06:50:00.250Z,50.91
2023-01-30T06:52:01.593Z,50.84
2023-01-30T06:54:02.919Z,50.75
2023-01-30T06:56:04.323Z,50.41
2023-01-30T06:58:05.724Z,50.58
2023-01-30T07:00:07.052Z,50.16
2023-01-30T07:02:08.483Z,50.17
2023-01-30T07:04:09.867Z,49.89
2023-01-30T07:06:11.195Z,49.69
2023-01-30T07:08:12.489Z,49.64
2023-01-30T07:10:14.037Z,49.71
2023-01-30T07:12:15.431Z,49.61
2023-01-30T07:14:19.912Z,49.66
2023-01-30T07:16:23.992Z,49.33
2023-01-30T07:18:25.322Z,49.27
2023-01-30T07:20:26.717Z,49.31
2023-01-30T07:22:28.018Z,49.11
2023-01-30T07:24:29.350Z,48.91
2023-01-30T07:26:31.335Z,49.16
2023-01-30T07:28:32.678Z,48.58
2023-01-30T07:30:35.907Z,48.88
2023-01-30T07:32:37.347Z,48.65
2023-01-30T07:34:39.894Z,48.92
2023-01-30T07:36:41.178Z,48.92
2023-01-30T07:38:42.518Z,49.05
2023-01-30T07:40:43.846Z,49.10
2023-01-30T07:42:45.191Z,49.12
2023-01-30T07:44:46.478Z,49.36
2023-01-30T07:46:47.801Z,49.53
2023-01-30T07:48:49.457Z,49.08
2023-01-30T07:50:50.866Z,49.41
2023-01-30T07:52:52.229Z,49.19
2023-01-30T07:54:53.531Z,49.60
2023-01-30T07:56:54.875Z,49.50
2023-01-30T07:58:56.182Z,49.53
2023-01-30T08:00:57.543Z,49.50
2023-01-30T08:02:58.887Z,49.59
2023-01-30T08:05:00.299Z,49.26
2023-01-30T08:07:01.645Z,49.28
2023-01-30T08:09:02.971Z,49.77
2023-01-30T08:11:04.270Z,49.89
2023-01-30T08:13:05.576Z,49.82
2023-01-30T08:15:06.919Z,49.78
2023-01-30T08:17:08.246Z,49.69
2023-01-30T08:19:09.610Z,49.71
2023-01-30T08:21:11.158Z,49.67
2023-01-30T08:23:12.451Z,49.58
2023-01-30T08:25:13.772Z,49.56
2023-01-30T08:27:15.121Z,49.56
2023-01-30T08:29:16.413Z,49.17
2023-01-30T08:31:17.839Z,49.05
2023-01-30T08:33:19.170Z,48.77
2023-01-30T08:35:20.466Z,48.59
2023-01-30T08:37:21.859Z,48.76
2023-01-30T08:39:23.247Z,48.62
2023-01-30T08:41:24.579Z,48.71
2023-01-30T08:43:25.928Z,48.58
2023-01-30T08:45:27.222Z,48.54
2023-01-30T08:47:28.558Z,48.57
2023-01-30T08:49:29.902Z,48.37
2023-01-30T08:51:31.194Z,48.38
2023-01-30T08:53:32.490Z,48.41
2023-01-30T08:55:33.805Z,48.23
2023-01-30T08:57:35.130Z,48.25
2023-01-30T08:59:36.546Z,48.54
2023-01-30T09:01:38.492Z,48.48
2023-01-30T09:03:39.866Z,48.25
2023-01-30T09:05:41.206Z,48.58
2023-01-30T09:07:42.546Z,48.50
2023-01-30T09:09:43.840Z,48.43
2023-01-30T09:11:47.502Z,48.16
2023-01-30T09:13:49.816Z,48.34
2023-01-30T09:15:51.206Z,48.37
2023-01-30T09:17:53.433Z,48.70
2023-01-30T09:19:54.721Z,48.40
2023-01-30T09:21:56.012Z,48.57
2023-01-30T09:23:57.566Z,48.78
2023-01-30T09:26:00.389Z,48.74
2023-01-30T09:28:02.157Z,48.93
2023-01-30T09:30:03.493Z,48.92
2023-01-30T09:32:04.852Z,48.92
2023-01-30T09:34:06.210Z,49.13
2023-01-30T09:36:07.531Z,48.99
2023-01-30T09:38:08.836Z,49.10
2023-01-30T09:40:10.139Z,49.03
2023-01-30T09:42:11.454Z,48.90
2023-01-30T09:44:12.778Z,48.89
2023-01-30T09:46:14.140Z,49.02
2023-01-30T09:48:18.236Z,49.03
2023-01-30T09:50:21.299Z,49.06
2023-01-30T09:52:23.175Z,48.99
2023-01-30T09:54:24.573Z,48.85
2023-01-30T09:56:25.959Z,48.87
2023-01-30T09:58:27.312Z,48.96
2023-01-30T10:00:28.657Z,48.66
2023-01-30T10:02:29.975Z,48.71
2023-01-30T10:04:31.350Z,48.53
2023-01-30T10:06:32.722Z,48.65
2023-01-30T10:08:34.025Z,48.57
2023-01-30T10:10:35.431Z,48.35
2023-01-30T10:12:36.744Z,48.35
2023-01-30T10:14:38.086Z,48.35
2023-01-30T10:16:39.400Z,48.41
2023-01-30T10:18:40.751Z,48.32
2023-01-30T10:20:42.174Z,48.28
2023-01-30T10:22:43.572Z,48.25
2023-01-30T10:24:44.977Z,48.04
2023-01-30T10:26:46.398Z,48.03
2023-01-30T10:28:52.445Z,48.07
2023-01-30T10:31:00.225Z,47.94
2023-01-30T10:33:02.300Z,48.00
2023-01-30T10:35:03.615Z,47.86
2023-01-30T10:37:04.919Z,47.98
2023-01-30T10:39:06.255Z,48.18
2023-01-30T10:41:10.327Z,48.14
2023-01-30T10:43:11.642Z,48.18
2023-01-30T10:45:13.334Z,48.04
2023-01-30T10:47:16.015Z,48.07
2023-01-30T10:49:19.004Z,48.02
2023-01-30T10:51:22.505Z,47.86
2023-01-30T10:53:23.847Z,47.79
2023-01-30T10:55:36.720Z,48.08
2023-01-30T10:57:38.804Z,47.79
2023-01-30T10:59:41.024Z,47.92
2023-01-30T11:01:42.364Z,47.72
2023-01-30T11:03:43.690Z,47.84
2023-01-30T11:05:45.000Z,47.72
2023-01-30T11:07:46.291Z,47.92
2023-01-30T11:09:47.597Z,48.15
2023-01-30T11:11:48.943Z,48.11
2023-01-30T11:13:50.225Z,48.18
2023-01-30T11:15:54.359Z,47.85
2023-01-30T11:17:58.887Z,47.79
2023-01-30T11:20:02.797Z,47.84
2023-01-30T11:22:04.095Z,48.00
2023-01-30T11:24:06.100Z,47.99
2023-01-30T11:26:11.597Z,47.87
2023-01-30T11:28:13.234Z,47.91
2023-01-30T11:30:14.767Z,47.91
2023-01-30T11:32:16.353Z,48.10
2023-01-30T11:34:20.580Z,47.73
2023-01-30T11:36:21.895Z,47.92
2023-01-30T11:38:23.219Z,48.27
2023-01-30T11:40:25.345Z,47.85
2023-01-30T11:42:26.739Z,47.92
2023-01-30T11:44:28.094Z,48.34
2023-01-30T11:46:29.401Z,47.80
2023-01-30T11:48:34.104Z,44.82
2023-01-30T11:50:52.014Z,44.31
2023-01-30T11:52:54.810Z,44.17
2023-01-30T11:54:56.169Z,42.88
2023-01-30T11:56:57.476Z,43.13
2023-01-30T11:58:58.876Z,45.03
2023-01-30T12:01:00.329Z,43.47
2023-01-30T12:03:02.203Z,42.80
2023-01-30T12:05:04.647Z,42.09
2023-01-30T12:07:06.011Z,42.46
2023-01-30T12:09:07.310Z,42.37
2023-01-30T12:11:08.644Z,42.51
2023-01-30T12:13:09.939Z,42.92
2023-01-30T12:15:11.614Z,43.20
2023-01-30T12:17:12.954Z,43.31
2023-01-30T12:19:14.292Z,43.49
2023-01-30T12:21:15.619Z,43.60
2023-01-30T12:23:17.066Z,43.91
2023-01-30T12:25:18.369Z,43.97
2023-01-30T12:27:19.677Z,44.04
2023-01-30T12:29:21.031Z,44.14
2023-01-30T12:31:22.342Z,44.30
2023-01-30T12:33:23.710Z,44.65
2023-01-30T12:35:25.111Z,44.63
2023-01-30T12:37:26.415Z,44.55
2023-01-30T12:39:27.775Z,44.54
2023-01-30T12:41:29.075Z,44.76
2023-01-30T12:43:30.455Z,44.91
2023-01-30T12:45:31.752Z,44.56
2023-01-30T12:47:38.885Z,44.94
2023-01-30T12:49:40.242Z,44.89
2023-01-30T12:51:41.550Z,45.11
2023-01-30T12:53:42.846Z,45.25
2023-01-30T12:55:44.220Z,45.41
2023-01-30T12:57:45.555Z,45.36
2023-01-30T12:59:49.367Z,45.80
2023-01-30T13:01:50.711Z,45.82
2023-01-30T13:03:52.058Z,46.06
2023-01-30T13:05:54.147Z,46.28
2023-01-30T13:07:55.655Z,46.37
2023-01-30T13:09:57.282Z,46.53
2023-01-30T13:11:59.134Z,46.36
2023-01-30T13:14:00.460Z,46.54
2023-01-30T13:16:02.205Z,46.34
2023-01-30T13:18:03.644Z,46.47
2023-01-30T13:20:05.317Z,46.28
2023-01-30T13:22:06.627Z,46.71
2023-01-30T13:24:07.919Z,46.22
2023-01-30T13:26:09.222Z,46.12
2023-01-30T13:28:10.515Z,45.86
2023-01-30T13:30:11.811Z,45.81
2023-01-30T13:32:13.198Z,46.01
2023-01-30T13:34:14.594Z,45.80
2023-01-30T13:36:16.608Z,45.53
2023-01-30T13:38:17.898Z,45.73
2023-01-30T13:40:19.536Z,45.76
2023-01-30T13:42:21.080Z,45.79
2023-01-30T13:44:23.770Z,45.49
2023-01-30T13:46:25.246Z,45.58
2023-01-30T13:48:26.631Z,45.38
2023-01-30T13:50:28.046Z,45.68
2023-01-30T13:52:29.471Z,45.65
2023-01-30T13:54:30.767Z,45.78
2023-01-30T13:56:41.291Z,45.72
2023-01-30T13:58:44.376Z,45.75
2023-01-30T14:00:45.942Z,45.83
2023-01-30T14:02:47.269Z,45.86
2023-01-30T14:04:48.723Z,45.59
2023-01-30T14:06:50.072Z,45.68
2023-01-30T14:08:51.493Z,45.60
2023-01-30T14:10:52.846Z,46.01
2023-01-30T14:12:54.213Z,45.90
2023-01-30T14:14:55.542Z,46.02
2023-01-30T14:16:56.943Z,46.03
2023-01-30T14:18:58.247Z,45.98
2023-01-30T14:20:59.546Z,45.86
2023-01-30T14:23:00.932Z,46.19
2023-01-30T14:25:02.274Z,46.04
2023-01-30T14:27:03.583Z,46.14
2023-01-30T14:29:04.944Z,46.35
2023-01-30T14:31:06.642Z,46.34
2023-01-30T14:33:08.000Z,46.44
2023-01-30T14:35:09.319Z,46.35
2023-01-30T14:37:10.649Z,46.29
2023-01-30T14:39:11.982Z,46.52
2023-01-30T14:41:13.289Z,46.48
2023-01-30T14:43:20.581Z,46.58
2023-01-30T14:45:21.877Z,46.42
2023-01-30T14:47:35.187Z,46.68
2023-01-30T14:49:44.535Z,46.67
2023-01-30T14:51:47.748Z,46.75
2023-01-30T14:53:49.047Z,46.66
2023-01-30T14:55:50.343Z,46.79
2023-01-30T14:57:51.660Z,46.84
2023-01-30T15:00:11.489Z,46.78
2023-01-30T15:02:14.674Z,46.63
2023-01-30T15:04:16.174Z,46.52
2023-01-30T15:06:19.707Z,46.37
2023-01-30T15:08:21.103Z,46.23
2023-01-30T15:10:23.577Z,46.46
2023-01-30T15:12:24.910Z,46.45
2023-01-30T15:14:26.207Z,46.29
2023-01-30T15:16:28.305Z,46.62
2023-01-30T15:18:29.709Z,46.19
2023-01-30T15:20:31.034Z,46.33
2023-01-30T15:22:32.344Z,46.11
2023-01-30T15:24:33.721Z,46.27
2023-01-30T15:26:35.407Z,46.07
2023-01-30T15:28:36.735Z,46.27
2023-01-30T15:30:38.095Z,46.17
2023-01-30T15:32:39.455Z,46.19
2023-01-30T15:34:41.870Z,46.28
2023-01-30T15:36:45.857Z,45.84
2023-01-30T15:38:47.167Z,46.08
2023-01-30T15:40:48.479Z,46.06
2023-01-30T15:42:49.819Z,46.04
2023-01-30T15:44:51.108Z,46.29
2023-01-30T15:46:52.417Z,46.03
2023-01-30T15:48:53.755Z,46.32
2023-01-30T15:50:55.155Z,46.10
2023-01-30T15:52:58.183Z,46.06
2023-01-30T15:54:59.523Z,46.07
2023-01-30T15:57:00.979Z,46.16
2023-01-30T15:59:02.350Z,45.99
2023-01-30T16:01:03.690Z,46.18
2023-01-30T16:03:05.066Z,46.09
2023-01-30T16:05:06.402Z,46.30
2023-01-30T16:07:07.743Z,46.14
2023-01-30T16:09:09.043Z,46.23
2023-01-30T16:11:13.478Z,46.26
2023-01-30T16:13:14.807Z,46.30
2023-01-30T16:15:29.804Z,46.42
2023-01-30T16:17:31.272Z,46.20
2023-01-30T16:19:32.600Z,46.41
2023-01-30T16:21:34.379Z,46.42
2023-01-30T16:23:35.726Z,46.45
2023-01-30T16:25:37.028Z,46.16
2023-01-30T16:27:38.360Z,46.40
2023-01-30T16:29:39.655Z,46.44
2023-01-30T16:31:41.653Z,46.30
2023-01-30T16:33:43.119Z,46.49
2023-01-30T16:35:47.293Z,46.34
2023-01-30T16:37:48.651Z,46.46
2023-01-30T16:39:49.936Z,46.37
2023-01-30T16:41:51.289Z,46.38
2023-01-30T16:43:52.626Z,46.33
2023-01-30T16:45:53.960Z,46.29
2023-01-30T16:47:55.335Z,46.33
2023-01-30T16:49:58.790Z,46.27
2023-01-30T16:52:00.172Z,46.15
2023-01-30T16:54:02.239Z,46.24
2023-01-30T16:56:03.967Z,46.18
2023-01-30T16:58:09.296Z,47.74
2023-01-30T17:00:10.659Z,47.17
2023-01-30T17:02:12.012Z,47.05
2023-01-30T17:04:13.356Z,46.21
2023-01-30T17:06:16.241Z,45.77
2023-01-30T17:08:17.589Z,46.01
2023-01-30T17:10:19.057Z,46.29
2023-01-30T17:12:20.558Z,47.11
2023-01-30T17:14:21.908Z,46.45
2023-01-30T17:16:23.223Z,46.56
2023-01-30T17:18:24.532Z,46.59
2023-01-30T17:20:25.895Z,46.92
2023-01-30T17:22:27.261Z,46.94
2023-01-30T17:24:29.021Z,46.23
2023-01-30T17:26:30.409Z,45.39
2023-01-30T17:28:31.723Z,45.57
2023-01-30T17:30:33.135Z,46.94
2023-01-30T17:32:37.257Z,46.84
2023-01-30T17:34:41.025Z,47.06
2023-01-30T17:36:44.022Z,47.31
2023-01-30T17:38:45.514Z,45.95
2023-01-30T17:40:49.495Z,46.16
2023-01-30T17:42:50.953Z,46.84
2023-01-30T17:44:52.418Z,46.51
2023-01-30T17:46:53.751Z,45.92
2023-01-30T17:48:56.148Z,46.20
2023-01-30T17:50:57.453Z,47.09
2023-01-30T17:52:58.747Z,48.25
2023-01-30T17:55:00.038Z,48.04
2023-01-30T17:57:01.391Z,47.51
2023-01-30T17:59:02.697Z,47.38
2023-01-30T18:01:03.995Z,47.07
2023-01-30T18:03:05.375Z,47.67
2023-01-30T18:05:06.699Z,47.00
2023-01-30T18:07:09.829Z,46.75
2023-01-30T18:09:11.126Z,47.12
2023-01-30T18:11:14.745Z,45.76
2023-01-30T18:13:16.985Z,45.85
2023-01-30T18:15:18.622Z,46.08
2023-01-30T18:17:20.230Z,46.66
2023-01-30T18:19:26.955Z,47.12
2023-01-30T18:21:34.122Z,47.14
2023-01-30T18:23:36.987Z,47.07
2023-01-30T18:25:38.293Z,47.57
2023-01-30T18:27:39.612Z,47.33
2023-01-30T18:29:40.900Z,47.39
2023-01-30T18:31:42.357Z,46.88
2023-01-30T18:33:47.401Z,47.29
2023-01-30T18:35:48.715Z,45.83
2023-01-30T18:37:50.286Z,46.26
2023-01-30T18:39:51.600Z,46.21
2023-01-30T18:41:52.897Z,45.96
2023-01-30T18:43:54.233Z,46.29
2023-01-30T18:45:58.562Z,46.85
2023-01-30T18:48:00.336Z,46.86
2023-01-30T18:50:02.228Z,46.87
2023-01-30T18:52:04.028Z,47.84
2023-01-30T18:54:05.307Z,48.19
2023-01-30T18:56:06.651Z,47.36
2023-01-30T18:58:14.208Z,47.53
2023-01-30T19:00:17.478Z,47.15
2023-01-30T19:02:18.952Z,47.96
2023-01-30T19:04:20.289Z,47.59
2023-01-30T19:06:21.579Z,47.66
2023-01-30T19:08:23.314Z,47.76
2023-01-30T19:10:24.661Z,47.30
2023-01-30T19:12:44.855Z,47.50
2023-01-30T19:14:46.195Z,48.41
2023-01-30T19:16:47.544Z,46.92
2023-01-30T19:18:49.717Z,47.44
2023-01-30T19:20:51.025Z,47.91
2023-01-30T19:22:54.765Z,47.17
2023-01-30T19:24:56.118Z,46.94
2023-01-30T19:26:57.431Z,47.73
2023-01-30T19:28:58.770Z,48.64
2023-01-30T19:31:00.175Z,47.98
2023-01-30T19:33:04.855Z,47.94
2023-01-30T19:35:16.684Z,48.42
2023-01-30T19:37:18.036Z,48.00
2023-01-30T19:39:19.497Z,47.92
2023-01-30T19:41:20.960Z,47.43
2023-01-30T19:43:22.247Z,48.61
2023-01-30T19:45:23.651Z,47.58
2023-01-30T19:47:24.991Z,47.65
2023-01-30T19:49:26.283Z,47.87
2023-01-30T19:51:27.641Z,48.51
2023-01-30T19:53:28.961Z,47.92
2023-01-30T19:55:30.255Z,47.63
2023-01-30T19:57:31.559Z,47.83
2023-01-30T19:59:34.496Z,47.71
2023-01-30T20:01:39.785Z,48.12
2023-01-30T20:03:41.203Z,47.86
2023-01-30T20:05:42.932Z,47.83
2023-01-30T20:07:44.874Z,49.20
2023-01-30T20:09:46.268Z,48.11
2023-01-30T20:11:50.194Z,48.60
2023-01-30T20:13:57.214Z,48.21
2023-01-30T20:16:05.991Z,48.26
2023-01-30T20:18:07.632Z,48.60
2023-01-30T20:20:10.466Z,48.53
2023-01-30T20:22:11.763Z,48.71
2023-01-30T20:24:13.133Z,48.81
2023-01-30T20:26:17.371Z,48.76
2023-01-30T20:28:18.680Z,48.97
2023-01-30T20:30:20.335Z,49.58
2023-01-30T20:32:21.905Z,48.65
2023-01-30T20:34:23.321Z,48.81
2023-01-30T20:36:24.630Z,48.59
2023-01-30T20:38:25.912Z,48.76
2023-01-30T20:40:27.243Z,49.07
2023-01-30T20:42:28.538Z,50.11
2023-01-30T20:44:33.539Z,50.70
2023-01-30T20:46:41.063Z,48.97
2023-01-30T20:48:42.595Z,48.53
2023-01-30T20:50:47.068Z,49.31
2023-01-30T20:52:48.389Z,49.04
2023-01-30T20:54:49.720Z,48.62
2023-01-30T20:56:51.548Z,48.66
2023-01-30T20:58:52.869Z,48.44
2023-01-30T21:00:54.247Z,48.74
2023-01-30T21:02:55.556Z,48.01
2023-01-30T21:04:56.849Z,48.17
2023-01-30T21:06:58.266Z,48.00
2023-01-30T21:08:59.588Z,47.78
2023-01-30T21:11:01.089Z,47.94
2023-01-30T21:15:06.335Z,47.97
2023-01-30T21:17:07.926Z,47.99
2023-01-30T21:19:09.242Z,47.94
2023-01-30T21:21:12.355Z,47.92
2023-01-30T21:23:13.695Z,48.33
2023-01-30T21:25:15.100Z,48.17
2023-01-30T21:27:16.565Z,48.64
2023-01-30T21:29:17.905Z,51.20
2023-01-30T21:31:19.318Z,49.57
2023-01-30T21:33:20.690Z,49.11
2023-01-30T21:35:22.127Z,49.85
2023-01-30T21:37:41.872Z,49.54
2023-01-30T21:40:02.189Z,49.69
2023-01-30T21:42:22.227Z,49.42
2023-01-30T21:44:23.527Z,49.31
2023-01-30T21:46:24.848Z,49.41
2023-01-30T21:48:26.154Z,49.50
2023-01-30T21:50:27.433Z,49.38
2023-01-30T21:52:28.892Z,49.31
2023-01-30T21:54:30.203Z,49.93
2023-01-30T21:56:31.564Z,49.25
2023-01-30T21:58:39.063Z,49.08
2023-01-30T22:00:40.358Z,49.18
2023-01-30T22:02:41.696Z,49.50
2023-01-30T22:04:43.026Z,49.17
2023-01-30T22:06:44.395Z,49.23
2023-01-30T22:08:45.728Z,49.58
2023-01-30T22:10:47.035Z,49.24
2023-01-30T22:12:48.465Z,49.01
2023-01-30T22:14:49.782Z,49.52
2023-01-30T22:16:51.261Z,49.42
2023-01-30T22:18:53.112Z,49.64
2023-01-30T22:20:54.456Z,49.17
2023-01-30T22:22:55.787Z,49.07
2023-01-30T22:24:57.125Z,50.62
2023-01-30T22:26:58.420Z,49.55
2023-01-30T22:28:59.780Z,49.13
2023-01-30T22:31:01.297Z,49.04
2023-01-30T22:33:02.675Z,48.82
2023-01-30T22:35:03.976Z,49.40
2023-01-30T22:37:05.267Z,49.59
2023-01-30T22:39:09.244Z,49.10
2023-01-30T22:41:15.244Z,49.60
2023-01-30T22:43:16.581Z,49.98
2023-01-30T22:45:18.255Z,50.14
2023-01-30T22:47:19.960Z,50.50
2023-01-30T22:49:21.321Z,49.70
2023-01-30T22:51:22.627Z,49.87
2023-01-30T22:53:24.255Z,49.86
2023-01-30T22:55:25.551Z,48.88
2023-01-30T22:57:26.989Z,48.97
2023-01-30T22:59:28.366Z,49.06
2023-01-30T23:01:29.688Z,49.41
2023-01-30T23:03:31.020Z,49.29
2023-01-30T23:05:32.355Z,49.45
2023-01-30T23:07:33.660Z,49.69
2023-01-30T23:09:34.995Z,49.86
2023-01-30T23:11:36.950Z,49.50
2023-01-30T23:13:38.246Z,45.19
2023-01-30T23:15:42.832Z,43.99
2023-01-30T23:18:02.742Z,45.88
2023-01-30T23:20:04.035Z,45.57
2023-01-30T23:22:05.338Z,45.97
2023-01-30T23:24:06.681Z,46.27
2023-01-30T23:26:08.010Z,46.04
2023-01-30T23:28:09.316Z,46.48
2023-01-30T23:30:10.614Z,47.00
2023-01-30T23:32:12.000Z,47.29
2023-01-30T23:34:13.458Z,46.86
2023-01-30T23:36:14.771Z,47.10
2023-01-30T23:38:16.106Z,47.11
2023-01-30T23:40:17.462Z,47.38
2023-01-30T23:42:18.807Z,47.47
2023-01-30T23:44:20.125Z,47.69
2023-01-30T23:46:21.470Z,47.73
2023-01-30T23:48:22.799Z,47.76
2023-01-30T23:50:24.102Z,48.28
2023-01-30T23:52:25.441Z,48.29
2023-01-30T23:54:26.812Z,48.19
2023-01-30T23:56:28.105Z,48.38
2023-01-30T23:58:29.444Z,48.60
